Adams, North Dakota
Current Conditions -  °F | °C
As of 6:35 PM on Friday 31 Oct 2014 (Local Time) from KD55 Reporting Station
Clear Clear  
Wind Chill: 22°   Ceiling: Unl
Heat Index: 32°   Visibility: 10mi
Dew Point: 14°   Wind: 15mph
Humidity: 47%   Direction: 160°SSE
Pressure: 30.28"   Gusts: 22mph
Location:  48.42°N, 98.08°W
Report Text: KD55 312335Z AUTO 16013G19KT 10SM CLR 00/M10 A3028 RMK AO2
Loading
Personal Weather Stations






























Interactive Weather Map New forecast layout! Learn more

10-Day Weather Forecast

Advertisements
Track Severe Weather on mobile